createdAt,value
2023-04-11T04:19:55.462Z,100318.69
2023-04-11T04:23:00.250Z,100314.34
2023-04-11T04:26:05.610Z,100314.34
2023-04-11T04:29:10.258Z,100312.41
2023-04-11T04:32:23.163Z,100306.94
2023-04-11T04:35:27.166Z,100315.59
2023-04-11T04:38:30.940Z,100319.88
2023-04-11T04:41:36.306Z,100324.09
2023-04-11T04:44:39.095Z,100322.09
2023-04-11T04:47:42.700Z,100324.59
2023-04-11T04:50:45.996Z,100311.28
2023-04-11T04:53:49.089Z,100312.81
2023-04-11T04:56:51.577Z,100318.72
2023-04-11T04:59:58.553Z,100317.56
2023-04-11T05:03:05.662Z,100317.84
2023-04-11T05:06:09.716Z,100310.50
2023-04-11T05:09:14.997Z,100311.75
2023-04-11T05:12:26.251Z,100298.84
2023-04-11T05:15:29.444Z,100300.84
2023-04-11T05:18:32.977Z,100298.25
2023-04-11T05:21:40.064Z,100294.00
2023-04-11T05:24:45.168Z,100295.94
2023-04-11T05:27:47.945Z,100296.16
2023-04-11T05:30:51.325Z,100289.09
2023-04-11T05:33:56.548Z,100284.41
2023-04-11T05:37:01.381Z,100289.22
2023-04-11T05:40:04.364Z,100289.75
2023-04-11T05:43:08.387Z,100281.13
2023-04-11T05:46:12.824Z,100289.62
2023-04-11T05:49:16.152Z,100289.44
2023-04-11T05:52:18.802Z,100286.41
2023-04-11T05:55:21.734Z,100276.06
2023-04-11T05:58:25.177Z,100262.78
2023-04-11T06:01:28.038Z,100269.00
2023-04-11T06:04:31.339Z,100267.69
2023-04-11T06:07:35.960Z,100267.34
2023-04-11T06:10:38.934Z,100263.44
2023-04-11T06:13:41.521Z,100259.53
2023-04-11T06:16:44.357Z,100260.81
2023-04-11T06:19:47.439Z,100260.59
2023-04-11T06:22:52.319Z,100254.47
2023-04-11T06:25:54.990Z,100255.91
2023-04-11T06:28:57.822Z,100252.88
2023-04-11T06:32:00.795Z,100250.50
2023-04-11T06:35:03.968Z,100245.47
2023-04-11T06:38:06.466Z,100243.75
2023-04-11T06:41:09.379Z,100236.06
2023-04-11T06:44:12.382Z,100242.62
2023-04-11T06:47:15.314Z,100240.34
2023-04-11T06:50:18.501Z,100241.59
2023-04-11T06:53:21.613Z,100241.16
2023-04-11T06:56:24.276Z,100244.44
2023-04-11T06:59:27.485Z,100232.25
2023-04-11T07:02:30.288Z,100234.06
2023-04-11T07:05:33.953Z,100236.97
2023-04-11T07:08:36.857Z,100232.72
2023-04-11T07:11:39.906Z,100236.19
2023-04-11T07:14:42.478Z,100227.41
2023-04-11T07:17:47.496Z,100219.25
2023-04-11T07:20:52.471Z,100214.78
2023-04-11T07:23:55.707Z,100206.22
2023-04-11T07:26:58.945Z,100219.06
2023-04-11T07:30:03.170Z,100213.37
2023-04-11T07:33:06.322Z,100219.09
2023-04-11T07:36:09.747Z,100211.84
2023-04-11T07:39:14.896Z,100204.31
2023-04-11T07:42:17.964Z,100206.94
2023-04-11T07:45:21.401Z,100205.00
2023-04-11T07:48:26.428Z,100213.94
2023-04-11T07:51:29.080Z,100205.78
2023-04-11T07:54:32.842Z,100201.47
2023-04-11T07:57:35.420Z,100200.44
2023-04-11T08:00:38.767Z,100188.84
2023-04-11T08:03:41.764Z,100183.78
2023-04-11T08:06:44.555Z,100177.31
2023-04-11T08:09:47.804Z,100175.31
2023-04-11T08:12:50.894Z,100171.97
2023-04-11T08:15:53.687Z,100177.44
2023-04-11T08:18:57.379Z,100178.31
2023-04-11T08:22:00.758Z,100166.78
2023-04-11T08:25:03.816Z,100165.34
2023-04-11T08:28:06.978Z,100154.25
2023-04-11T08:31:10.654Z,100152.06
2023-04-11T08:34:14.088Z,100146.22
2023-04-11T08:37:16.707Z,100141.72
2023-04-11T08:40:19.735Z,100135.94
2023-04-11T08:43:22.554Z,100125.06
2023-04-11T08:46:25.670Z,100116.44
2023-04-11T08:49:28.238Z,100105.09
2023-04-11T08:52:31.798Z,100098.91
2023-04-11T08:55:34.363Z,100106.84
2023-04-11T08:58:37.175Z,100098.31
2023-04-11T09:01:40.893Z,100096.25
2023-04-11T09:04:44.735Z,100085.53
2023-04-11T09:07:50.347Z,100081.88
2023-04-11T09:11:01.377Z,100090.25
2023-04-11T09:14:11.267Z,100096.62
2023-04-11T09:17:14.411Z,100095.06
2023-04-11T09:20:18.025Z,100085.75
2023-04-11T09:23:24.344Z,100081.13
2023-04-11T09:26:29.972Z,100079.91
2023-04-11T09:29:41.930Z,100068.38
2023-04-11T09:32:44.584Z,100063.03
2023-04-11T09:35:49.768Z,100051.44
2023-04-11T09:38:52.498Z,100057.41
2023-04-11T09:41:55.823Z,100040.06
2023-04-11T09:44:58.763Z,100039.22
2023-04-11T09:48:01.847Z,100042.25
2023-04-11T09:51:07.974Z,100040.69
2023-04-11T09:54:12.083Z,100039.66
2023-04-11T09:57:14.972Z,100042.72
2023-04-11T10:00:21.466Z,100038.34
2023-04-11T10:03:26.401Z,100035.09
2023-04-11T10:06:38.662Z,100027.72
2023-04-11T10:09:43.520Z,100024.00
2023-04-11T10:12:46.567Z,100016.81
2023-04-11T10:16:08.513Z,100014.50
2023-04-11T10:19:24.041Z,100019.97
2023-04-11T10:22:44.106Z,100011.22
2023-04-11T10:25:53.767Z,100004.34
2023-04-11T10:28:56.635Z,100004.62
2023-04-11T10:32:08.076Z,99986.03
2023-04-11T10:35:16.971Z,99976.25
2023-04-11T10:38:41.770Z,99976.47
2023-04-11T10:41:45.656Z,99962.97
2023-04-11T10:45:24.512Z,99960.22
2023-04-11T10:48:27.448Z,99952.56
2023-04-11T10:51:34.093Z,99960.38
2023-04-11T10:54:36.963Z,99948.94
2023-04-11T10:58:07.073Z,99949.03
2023-04-11T11:01:25.989Z,99945.56
2023-04-11T11:04:40.200Z,99939.69
2023-04-11T11:07:46.934Z,99919.88
2023-04-11T11:10:50.409Z,99922.81
2023-04-11T11:13:56.053Z,99914.69
2023-04-11T11:16:59.696Z,99909.69
2023-04-11T11:20:10.212Z,99910.69
2023-04-11T11:23:12.885Z,99903.00
2023-04-11T11:26:15.824Z,99896.97
2023-04-11T11:29:38.732Z,99894.25
2023-04-11T11:32:41.643Z,99884.13
2023-04-11T11:35:51.942Z,99883.12
2023-04-11T11:38:55.467Z,99882.25
2023-04-11T11:41:58.540Z,99881.16
2023-04-11T11:45:18.323Z,99887.06
2023-04-11T11:48:24.943Z,99888.53
2023-04-11T11:51:41.462Z,99880.88
2023-04-11T11:54:47.439Z,99876.94
2023-04-11T12:01:35.239Z,99873.06
2023-04-11T12:04:38.568Z,99862.34
2023-04-11T12:07:41.467Z,99866.53
2023-04-11T12:10:46.624Z,99865.19
2023-04-11T12:13:52.758Z,99867.91
2023-04-11T12:16:55.796Z,99858.47
2023-04-11T12:19:58.355Z,99860.56
2023-04-11T12:23:21.448Z,99859.09
2023-04-11T12:26:25.340Z,99867.69
2023-04-11T12:29:28.283Z,99867.28
2023-04-11T12:32:33.121Z,99864.28
2023-04-11T12:35:36.155Z,99866.13
2023-04-11T12:38:38.789Z,99863.00
2023-04-11T12:41:41.586Z,99850.44
2023-04-11T12:44:44.671Z,99853.91
2023-04-11T12:47:47.971Z,99841.22
2023-04-11T12:50:50.698Z,99839.63
2023-04-11T12:53:53.629Z,99834.69
2023-04-11T12:56:58.423Z,99835.59
2023-04-11T13:00:16.850Z,99831.75
2023-04-11T13:03:19.838Z,99818.13
2023-04-11T13:06:23.281Z,99818.66
2023-04-11T13:09:26.214Z,99808.56
2023-04-11T13:12:30.557Z,99809.47
2023-04-11T13:15:33.449Z,99806.44
2023-04-11T13:18:36.626Z,99795.19
2023-04-11T13:21:39.575Z,99796.81
2023-04-11T13:24:42.732Z,99794.13
2023-04-11T13:27:45.779Z,99790.31
2023-04-11T13:30:48.923Z,99790.75
2023-04-11T13:33:52.624Z,99791.31
2023-04-11T13:36:56.086Z,99781.28
2023-04-11T13:39:59.288Z,99766.56
2023-04-11T13:43:02.235Z,99774.06
2023-04-11T13:46:05.401Z,99766.75
2023-04-11T13:49:08.108Z,99763.22
2023-04-11T13:55:56.624Z,99760.22
2023-04-11T13:58:59.982Z,99756.50
2023-04-11T14:02:02.757Z,99762.31
2023-04-11T14:05:06.278Z,99751.25
2023-04-11T14:08:08.873Z,99763.69
2023-04-11T14:11:11.778Z,99754.59
2023-04-11T14:14:14.405Z,99749.63
2023-04-11T14:17:17.365Z,99766.09
2023-04-11T14:20:20.515Z,99766.72
2023-04-11T14:23:45.500Z,99760.91
2023-04-11T14:26:50.042Z,99767.38
2023-04-11T14:29:53.100Z,99765.41
2023-04-11T14:32:56.437Z,99770.88
2023-04-11T14:36:00.054Z,99785.72
2023-04-11T14:39:05.122Z,99795.03
2023-04-11T14:42:09.810Z,99787.75
2023-04-11T14:45:12.561Z,99797.25
2023-04-11T14:48:18.162Z,99795.56
2023-04-11T14:51:21.319Z,99797.97
2023-04-11T14:54:24.561Z,99796.88
2023-04-11T14:57:46.503Z,99799.56
2023-04-11T15:00:49.402Z,99805.69
2023-04-11T15:04:01.732Z,99800.06
2023-04-11T15:07:04.944Z,99812.81
2023-04-11T15:10:08.272Z,99812.88
2023-04-11T15:13:13.606Z,99813.69
2023-04-11T15:16:17.986Z,99817.41
2023-04-11T15:19:21.704Z,99821.59
2023-04-11T15:22:24.449Z,99829.38
2023-04-11T15:25:27.286Z,99820.84
2023-04-11T15:28:33.061Z,99819.75
2023-04-11T15:31:37.859Z,99839.91
